<?xml version="1.0" encoding="UTF-8" standalone="no" ?>
<gpx xmlns="http://www.topografix.com/GPX/1/1" xmlns:xsi="http://www.w3.org/2001/XMLSchema-instance" xsi:schemaLocation="http://www.topografix.com/GPX/1/1 http://www.topografix.com/GPX/1/1/gpx.xsd" version="1.1" creator="VisuGPX - https://www.visugpx.com">
  <metadata>
    <name>Rando LN</name>
  </metadata>
  <trk>
    <name><![CDATA[Espeyrac]]></name>
    <extensions>
      <line xmlns="http://www.topografix.com/GPX/gpx_style/0/2">
        <color>ff000d</color>
        <width>4</width>
      </line>
    </extensions>
    <trkseg>
      <trkpt lat="44.59948" lon="2.40012">
        <ele>327.399</ele>
        <time>2015-08-05T14:16:07Z</time>
      </trkpt>
      <trkpt lat="44.59948" lon="2.40012">
        <ele>327.399</ele>
        <time>2015-08-05T14:16:07Z</time>
      </trkpt>
      <trkpt lat="44.59948" lon="2.40012">
        <ele>327.399</ele>
        <time>2015-08-05T14:16:07Z</time>
      </trkpt>
      <trkpt lat="44.59948" lon="2.40012">
        <ele>327.399</ele>
        <time>2015-08-05T14:16:07Z</time>
      </trkpt>
      <trkpt lat="44.59948" lon="2.40012">
        <ele>327.399</ele>
        <time>2015-08-05T14:16:07Z</time>
      </trkpt>
      <trkpt lat="44.59964" lon="2.40235">
        <ele>335.271</ele>
        <time>2015-08-05T14:16:27Z</time>
      </trkpt>
      <trkpt lat="44.59956" lon="2.40271">
        <ele>335.843</ele>
        <time>2015-08-05T14:16:47Z</time>
      </trkpt>
      <trkpt lat="44.59962" lon="2.40298">
        <ele>342.374</ele>
        <time>2015-08-05T14:17:07Z</time>
      </trkpt>
      <trkpt lat="44.59965" lon="2.40287">
        <ele>342.51</ele>
        <time>2015-08-05T14:17:27Z</time>
      </trkpt>
      <trkpt lat="44.59981" lon="2.40398">
        <ele>354.692</ele>
        <time>2015-08-05T14:17:47Z</time>
      </trkpt>
      <trkpt lat="44.60017" lon="2.40514">
        <ele>364.572</ele>
        <time>2015-08-05T14:18:07Z</time>
      </trkpt>
      <trkpt lat="44.6005" lon="2.40576">
        <ele>377.513</ele>
        <time>2015-08-05T14:18:27Z</time>
      </trkpt>
      <trkpt lat="44.60083" lon="2.40602">
        <ele>386.314</ele>
        <time>2015-08-05T14:18:47Z</time>
      </trkpt>
      <trkpt lat="44.60127" lon="2.40602">
        <ele>401.808</ele>
        <time>2015-08-05T14:19:07Z</time>
      </trkpt>
      <trkpt lat="44.60152" lon="2.40564">
        <ele>414.023</ele>
        <time>2015-08-05T14:19:27Z</time>
      </trkpt>
      <trkpt lat="44.60163" lon="2.40529">
        <ele>420.868</ele>
        <time>2015-08-05T14:19:47Z</time>
      </trkpt>
      <trkpt lat="44.60166" lon="2.40443">
        <ele>428.838</ele>
        <time>2015-08-05T14:20:07Z</time>
      </trkpt>
      <trkpt lat="44.60141" lon="2.40373">
        <ele>426.73</ele>
        <time>2015-08-05T14:20:27Z</time>
      </trkpt>
      <trkpt lat="44.60143" lon="2.40338">
        <ele>428.182</ele>
        <time>2015-08-05T14:20:47Z</time>
      </trkpt>
      <trkpt lat="44.60167" lon="2.40272">
        <ele>437.863</ele>
        <time>2015-08-05T14:21:07Z</time>
      </trkpt>
      <trkpt lat="44.60188" lon="2.40255">
        <ele>450.449</ele>
        <time>2015-08-05T14:21:27Z</time>
      </trkpt>
      <trkpt lat="44.6019" lon="2.40298">
        <ele>451.121</ele>
        <time>2015-08-05T14:21:47Z</time>
      </trkpt>
      <trkpt lat="44.60205" lon="2.40336">
        <ele>451.723</ele>
        <time>2015-08-05T14:22:07Z</time>
      </trkpt>
      <trkpt lat="44.60237" lon="2.40352">
        <ele>463.983</ele>
        <time>2015-08-05T14:22:27Z</time>
      </trkpt>
      <trkpt lat="44.60316" lon="2.40457">
        <ele>487.811</ele>
        <time>2015-08-05T14:22:47Z</time>
      </trkpt>
      <trkpt lat="44.60362" lon="2.40533">
        <ele>500.908</ele>
        <time>2015-08-05T14:23:07Z</time>
      </trkpt>
      <trkpt lat="44.60472" lon="2.40749">
        <ele>533.028</ele>
        <time>2015-08-05T14:23:27Z</time>
      </trkpt>
      <trkpt lat="44.60469" lon="2.40797">
        <ele>538.383</ele>
        <time>2015-08-05T14:23:47Z</time>
      </trkpt>
      <trkpt lat="44.60498" lon="2.40803">
        <ele>540.753</ele>
        <time>2015-08-05T14:24:07Z</time>
      </trkpt>
      <trkpt lat="44.60526" lon="2.40885">
        <ele>547.715</ele>
        <time>2015-08-05T14:24:27Z</time>
      </trkpt>
      <trkpt lat="44.60537" lon="2.40977">
        <ele>545.617</ele>
        <time>2015-08-05T14:24:47Z</time>
      </trkpt>
      <trkpt lat="44.60565" lon="2.41144">
        <ele>545.138</ele>
        <time>2015-08-05T14:25:07Z</time>
      </trkpt>
      <trkpt lat="44.60619" lon="2.41199">
        <ele>553.424</ele>
        <time>2015-08-05T14:25:27Z</time>
      </trkpt>
      <trkpt lat="44.60643" lon="2.41255">
        <ele>558.076</ele>
        <time>2015-08-05T14:25:47Z</time>
      </trkpt>
      <trkpt lat="44.6064" lon="2.41303">
        <ele>559.955</ele>
        <time>2015-08-05T14:26:07Z</time>
      </trkpt>
      <trkpt lat="44.60594" lon="2.41374">
        <ele>561.607</ele>
        <time>2015-08-05T14:26:27Z</time>
      </trkpt>
      <trkpt lat="44.6049" lon="2.41492">
        <ele>559.617</ele>
        <time>2015-08-05T14:26:47Z</time>
      </trkpt>
      <trkpt lat="44.60443" lon="2.41573">
        <ele>562.108</ele>
        <time>2015-08-05T14:27:07Z</time>
      </trkpt>
      <trkpt lat="44.60442" lon="2.41656">
        <ele>559.611</ele>
        <time>2015-08-05T14:27:27Z</time>
      </trkpt>
      <trkpt lat="44.60467" lon="2.41714">
        <ele>561.656</ele>
        <time>2015-08-05T14:27:47Z</time>
      </trkpt>
      <trkpt lat="44.60502" lon="2.41823">
        <ele>557.726</ele>
        <time>2015-08-05T14:28:07Z</time>
      </trkpt>
      <trkpt lat="44.60567" lon="2.4183">
        <ele>563.188</ele>
        <time>2015-08-05T14:28:27Z</time>
      </trkpt>
      <trkpt lat="44.60598" lon="2.4188">
        <ele>563.12</ele>
        <time>2015-08-05T14:28:47Z</time>
      </trkpt>
      <trkpt lat="44.60611" lon="2.41953">
        <ele>569.241</ele>
        <time>2015-08-05T14:29:07Z</time>
      </trkpt>
      <trkpt lat="44.60629" lon="2.41987">
        <ele>572.957</ele>
        <time>2015-08-05T14:29:27Z</time>
      </trkpt>
      <trkpt lat="44.60659" lon="2.42071">
        <ele>574.849</ele>
        <time>2015-08-05T14:29:47Z</time>
      </trkpt>
      <trkpt lat="44.60684" lon="2.42091">
        <ele>572.451</ele>
        <time>2015-08-05T14:30:07Z</time>
      </trkpt>
      <trkpt lat="44.6074" lon="2.42096">
        <ele>574.001</ele>
        <time>2015-08-05T14:30:27Z</time>
      </trkpt>
      <trkpt lat="44.60752" lon="2.42118">
        <ele>574.411</ele>
        <time>2015-08-05T14:30:47Z</time>
      </trkpt>
      <trkpt lat="44.60743" lon="2.42183">
        <ele>572.808</ele>
        <time>2015-08-05T14:31:07Z</time>
      </trkpt>
      <trkpt lat="44.60752" lon="2.42219">
        <ele>574.141</ele>
        <time>2015-08-05T14:31:27Z</time>
      </trkpt>
      <trkpt lat="44.60924" lon="2.42442">
        <ele>563.386</ele>
        <time>2015-08-05T14:31:47Z</time>
      </trkpt>
      <trkpt lat="44.60942" lon="2.4251">
        <ele>562.186</ele>
        <time>2015-08-05T14:32:07Z</time>
      </trkpt>
      <trkpt lat="44.60939" lon="2.42656">
        <ele>565.238</ele>
        <time>2015-08-05T14:32:27Z</time>
      </trkpt>
      <trkpt lat="44.60954" lon="2.42758">
        <ele>571.21</ele>
        <time>2015-08-05T14:32:47Z</time>
      </trkpt>
      <trkpt lat="44.60978" lon="2.42833">
        <ele>569.121</ele>
        <time>2015-08-05T14:33:07Z</time>
      </trkpt>
      <trkpt lat="44.60998" lon="2.42901">
        <ele>564.987</ele>
        <time>2020-03-06T21:59:37Z</time>
      </trkpt>
      <trkpt lat="44.61151" lon="2.42983">
        <ele>565.879</ele>
        <time>2020-03-06T21:59:57Z</time>
      </trkpt>
      <trkpt lat="44.61176" lon="2.4303">
        <ele>565.569</ele>
        <time>2015-08-05T14:34:07Z</time>
      </trkpt>
      <trkpt lat="44.61165" lon="2.43083">
        <ele>569.704</ele>
        <time>2015-08-05T14:34:27Z</time>
      </trkpt>
      <trkpt lat="44.61087" lon="2.43179">
        <ele>571.524</ele>
        <time>2015-08-05T14:34:47Z</time>
      </trkpt>
      <trkpt lat="44.61063" lon="2.43257">
        <ele>567.508</ele>
        <time>2015-08-05T14:35:07Z</time>
      </trkpt>
      <trkpt lat="44.61065" lon="2.43345">
        <ele>568.362</ele>
        <time>2015-08-05T14:35:27Z</time>
      </trkpt>
      <trkpt lat="44.61101" lon="2.43446">
        <ele>571.977</ele>
        <time>2015-08-05T14:35:47Z</time>
      </trkpt>
      <trkpt lat="44.61108" lon="2.43602">
        <ele>576.397</ele>
        <time>2015-08-05T14:36:07Z</time>
      </trkpt>
      <trkpt lat="44.61076" lon="2.43678">
        <ele>580.489</ele>
        <time>2015-08-05T14:36:27Z</time>
      </trkpt>
      <trkpt lat="44.61009" lon="2.43706">
        <ele>578.481</ele>
        <time>2015-08-05T14:36:47Z</time>
      </trkpt>
      <trkpt lat="44.60988" lon="2.43741">
        <ele>576.922</ele>
        <time>2015-08-05T14:37:07Z</time>
      </trkpt>
      <trkpt lat="44.60984" lon="2.43808">
        <ele>583.018</ele>
        <time>2015-08-05T14:37:27Z</time>
      </trkpt>
      <trkpt lat="44.60946" lon="2.4387">
        <ele>584.56</ele>
        <time>2015-08-05T14:37:47Z</time>
      </trkpt>
      <trkpt lat="44.6096" lon="2.43931">
        <ele>586.747</ele>
        <time>2015-08-05T14:38:07Z</time>
      </trkpt>
      <trkpt lat="44.60962" lon="2.43974">
        <ele>588.029</ele>
        <time>2015-08-05T14:38:27Z</time>
      </trkpt>
      <trkpt lat="44.60938" lon="2.44052">
        <ele>587.821</ele>
        <time>2015-08-05T14:38:47Z</time>
      </trkpt>
      <trkpt lat="44.60933" lon="2.44101">
        <ele>586.108</ele>
        <time>2015-08-05T14:39:07Z</time>
      </trkpt>
      <trkpt lat="44.60966" lon="2.44167">
        <ele>588.84</ele>
        <time>2015-08-05T14:39:27Z</time>
      </trkpt>
      <trkpt lat="44.60967" lon="2.44208">
        <ele>590.685</ele>
        <time>2015-08-05T14:39:47Z</time>
      </trkpt>
      <trkpt lat="44.60922" lon="2.4432">
        <ele>593.925</ele>
        <time>2015-08-05T14:40:07Z</time>
      </trkpt>
      <trkpt lat="44.60912" lon="2.44415">
        <ele>594.817</ele>
        <time>2015-08-05T14:40:27Z</time>
      </trkpt>
      <trkpt lat="44.6096" lon="2.44462">
        <ele>598.449</ele>
        <time>2015-08-05T14:40:47Z</time>
      </trkpt>
      <trkpt lat="44.60965" lon="2.44506">
        <ele>597.57</ele>
        <time>2015-08-05T14:41:07Z</time>
      </trkpt>
      <trkpt lat="44.60941" lon="2.44586">
        <ele>598.846</ele>
        <time>2015-08-05T14:41:27Z</time>
      </trkpt>
      <trkpt lat="44.60934" lon="2.44645">
        <ele>602.348</ele>
        <time>2015-08-05T14:41:47Z</time>
      </trkpt>
      <trkpt lat="44.60869" lon="2.44784">
        <ele>603.674</ele>
        <time>2015-08-05T14:42:07Z</time>
      </trkpt>
      <trkpt lat="44.60863" lon="2.44839">
        <ele>603.356</ele>
        <time>2015-08-05T14:42:27Z</time>
      </trkpt>
      <trkpt lat="44.60887" lon="2.44848">
        <ele>607.221</ele>
        <time>2015-08-05T14:42:47Z</time>
      </trkpt>
      <trkpt lat="44.6091" lon="2.44846">
        <ele>609.808</ele>
        <time>2015-08-05T14:43:07Z</time>
      </trkpt>
      <trkpt lat="44.60941" lon="2.449">
        <ele>611.363</ele>
        <time>2015-08-05T14:43:27Z</time>
      </trkpt>
      <trkpt lat="44.61008" lon="2.44946">
        <ele>610.258</ele>
        <time>2015-08-05T14:43:47Z</time>
      </trkpt>
      <trkpt lat="44.61032" lon="2.45">
        <ele>608.268</ele>
        <time>2015-08-05T14:44:07Z</time>
      </trkpt>
      <trkpt lat="44.61052" lon="2.45078">
        <ele>607.07</ele>
        <time>2015-08-05T14:44:27Z</time>
      </trkpt>
      <trkpt lat="44.61094" lon="2.45183">
        <ele>608.242</ele>
        <time>2015-08-05T14:44:47Z</time>
      </trkpt>
      <trkpt lat="44.61197" lon="2.45311">
        <ele>611.973</ele>
        <time>2015-08-05T14:45:07Z</time>
      </trkpt>
      <trkpt lat="44.61231" lon="2.4536">
        <ele>612.329</ele>
        <time>2015-08-05T14:45:27Z</time>
      </trkpt>
      <trkpt lat="44.61291" lon="2.45505">
        <ele>606.341</ele>
        <time>2015-08-05T14:45:47Z</time>
      </trkpt>
      <trkpt lat="44.61302" lon="2.4552">
        <ele>605.672</ele>
        <time>2015-08-05T14:46:07Z</time>
      </trkpt>
      <trkpt lat="44.61293" lon="2.45561">
        <ele>606.113</ele>
        <time>2015-08-05T14:46:27Z</time>
      </trkpt>
      <trkpt lat="44.61252" lon="2.45632">
        <ele>612.414</ele>
        <time>2015-08-05T14:46:47Z</time>
      </trkpt>
      <trkpt lat="44.61171" lon="2.45726">
        <ele>618.308</ele>
        <time>2015-08-05T14:47:07Z</time>
      </trkpt>
      <trkpt lat="44.61153" lon="2.45775">
        <ele>620.463</ele>
        <time>2015-08-05T14:47:27Z</time>
      </trkpt>
      <trkpt lat="44.61147" lon="2.45815">
        <ele>622.288</ele>
        <time>2015-08-05T14:47:47Z</time>
      </trkpt>
      <trkpt lat="44.61097" lon="2.45957">
        <ele>620.858</ele>
        <time>2015-08-05T14:48:07Z</time>
      </trkpt>
      <trkpt lat="44.61095" lon="2.45992">
        <ele>620.66</ele>
        <time>2015-08-05T14:48:27Z</time>
      </trkpt>
      <trkpt lat="44.60943" lon="2.46043">
        <ele>624.032</ele>
        <time>2015-08-05T14:48:47Z</time>
      </trkpt>
      <trkpt lat="44.60824" lon="2.46103">
        <ele>624.013</ele>
        <time>2015-08-05T14:49:07Z</time>
      </trkpt>
      <trkpt lat="44.60701" lon="2.46139">
        <ele>624.279</ele>
        <time>2015-08-05T14:49:27Z</time>
      </trkpt>
      <trkpt lat="44.60698" lon="2.46203">
        <ele>622.791</ele>
        <time>2015-08-05T14:49:47Z</time>
      </trkpt>
      <trkpt lat="44.60681" lon="2.46296">
        <ele>618.973</ele>
        <time>2015-08-05T14:50:07Z</time>
      </trkpt>
      <trkpt lat="44.60662" lon="2.46388">
        <ele>611.785</ele>
        <time>2015-08-05T14:50:27Z</time>
      </trkpt>
      <trkpt lat="44.60659" lon="2.46444">
        <ele>609.713</ele>
        <time>2015-08-05T14:50:47Z</time>
      </trkpt>
      <trkpt lat="44.60659" lon="2.4654">
        <ele>609.008</ele>
        <time>2015-08-05T14:51:07Z</time>
      </trkpt>
      <trkpt lat="44.60646" lon="2.46601">
        <ele>608.353</ele>
        <time>2015-08-05T14:51:27Z</time>
      </trkpt>
      <trkpt lat="44.60595" lon="2.46756">
        <ele>605.578</ele>
        <time>2015-08-05T14:51:47Z</time>
      </trkpt>
      <trkpt lat="44.60587" lon="2.46834">
        <ele>604.078</ele>
        <time>2015-08-05T14:52:07Z</time>
      </trkpt>
      <trkpt lat="44.60589" lon="2.46868">
        <ele>602.87</ele>
        <time>2015-08-05T14:52:27Z</time>
      </trkpt>
      <trkpt lat="44.60546" lon="2.46995">
        <ele>604.042</ele>
        <time>2015-08-05T14:52:47Z</time>
      </trkpt>
      <trkpt lat="44.60518" lon="2.47125">
        <ele>615.443</ele>
        <time>2015-08-05T14:53:07Z</time>
      </trkpt>
      <trkpt lat="44.6052" lon="2.47194">
        <ele>616.299</ele>
        <time>2015-08-05T14:53:27Z</time>
      </trkpt>
      <trkpt lat="44.60537" lon="2.47318">
        <ele>608.871</ele>
        <time>2015-08-05T14:53:47Z</time>
      </trkpt>
      <trkpt lat="44.60543" lon="2.47397">
        <ele>598.986</ele>
        <time>2015-08-05T14:54:07Z</time>
      </trkpt>
      <trkpt lat="44.60527" lon="2.47461">
        <ele>596.96</ele>
        <time>2015-08-05T14:54:27Z</time>
      </trkpt>
      <trkpt lat="44.60538" lon="2.4752">
        <ele>592.926</ele>
        <time>2015-08-05T14:54:47Z</time>
      </trkpt>
      <trkpt lat="44.6056" lon="2.47663">
        <ele>584.708</ele>
        <time>2015-08-05T14:55:07Z</time>
      </trkpt>
      <trkpt lat="44.60607" lon="2.47747">
        <ele>581.364</ele>
        <time>2015-08-05T14:55:27Z</time>
      </trkpt>
      <trkpt lat="44.60624" lon="2.47791">
        <ele>580.829</ele>
        <time>2015-08-05T14:55:47Z</time>
      </trkpt>
      <trkpt lat="44.60629" lon="2.47826">
        <ele>581.049</ele>
        <time>2015-08-05T14:56:07Z</time>
      </trkpt>
      <trkpt lat="44.60617" lon="2.47876">
        <ele>579.811</ele>
        <time>2015-08-05T14:56:27Z</time>
      </trkpt>
      <trkpt lat="44.60598" lon="2.47913">
        <ele>576.953</ele>
        <time>2015-08-05T14:56:47Z</time>
      </trkpt>
      <trkpt lat="44.60564" lon="2.47951">
        <ele>570.634</ele>
        <time>2015-08-05T14:57:07Z</time>
      </trkpt>
      <trkpt lat="44.60554" lon="2.47979">
        <ele>565.08</ele>
        <time>2015-08-05T14:57:27Z</time>
      </trkpt>
      <trkpt lat="44.60556" lon="2.48052">
        <ele>549.772</ele>
        <time>2015-08-05T14:57:47Z</time>
      </trkpt>
      <trkpt lat="44.60507" lon="2.48206">
        <ele>528.468</ele>
        <time>2015-08-05T14:58:07Z</time>
      </trkpt>
      <trkpt lat="44.60473" lon="2.48246">
        <ele>517.742</ele>
        <time>2015-08-05T14:58:27Z</time>
      </trkpt>
      <trkpt lat="44.60455" lon="2.48279">
        <ele>512.226</ele>
        <time>2015-08-05T14:58:47Z</time>
      </trkpt>
      <trkpt lat="44.60446" lon="2.48345">
        <ele>508.408</ele>
        <time>2015-08-05T14:59:07Z</time>
      </trkpt>
      <trkpt lat="44.60449" lon="2.48389">
        <ele>504.682</ele>
        <time>2015-08-05T14:59:27Z</time>
      </trkpt>
      <trkpt lat="44.60488" lon="2.48424">
        <ele>505.677</ele>
        <time>2015-08-05T14:59:47Z</time>
      </trkpt>
      <trkpt lat="44.60536" lon="2.48527">
        <ele>506.757</ele>
        <time>2015-08-05T15:00:07Z</time>
      </trkpt>
      <trkpt lat="44.60511" lon="2.48604">
        <ele>508.419</ele>
        <time>2015-08-05T15:00:27Z</time>
      </trkpt>
      <trkpt lat="44.60487" lon="2.48656">
        <ele>504.891</ele>
        <time>2015-08-05T15:00:47Z</time>
      </trkpt>
      <trkpt lat="44.60527" lon="2.48713">
        <ele>505.022</ele>
        <time>2015-08-05T15:01:07Z</time>
      </trkpt>
      <trkpt lat="44.60527" lon="2.48713">
        <ele>505.022</ele>
        <time>2015-08-05T15:01:07Z</time>
      </trkpt>
      <trkpt lat="44.60516" lon="2.48836">
        <ele>496.448</ele>
        <time>2015-08-05T15:01:27Z</time>
      </trkpt>
      <trkpt lat="44.60413" lon="2.49137">
        <ele>475.64</ele>
        <time>2015-08-05T15:01:47Z</time>
      </trkpt>
      <trkpt lat="44.60413" lon="2.4916">
        <ele>474.241</ele>
        <time>2015-08-05T15:02:07Z</time>
      </trkpt>
      <trkpt lat="44.60443" lon="2.49227">
        <ele>465.381</ele>
        <time>2015-08-05T15:02:27Z</time>
      </trkpt>
      <trkpt lat="44.60494" lon="2.49351">
        <ele>451.909</ele>
        <time>2015-08-05T15:02:47Z</time>
      </trkpt>
      <trkpt lat="44.60497" lon="2.49401">
        <ele>448.808</ele>
        <time>2015-08-05T15:03:07Z</time>
      </trkpt>
      <trkpt lat="44.60493" lon="2.49435">
        <ele>443.26</ele>
        <time>2015-08-05T15:03:27Z</time>
      </trkpt>
      <trkpt lat="44.6051" lon="2.49481">
        <ele>435.545</ele>
        <time>2015-08-05T15:03:47Z</time>
      </trkpt>
      <trkpt lat="44.60507" lon="2.49558">
        <ele>423.045</ele>
        <time>2015-08-05T15:04:07Z</time>
      </trkpt>
      <trkpt lat="44.60511" lon="2.49601">
        <ele>420.447</ele>
        <time>2015-08-05T15:04:27Z</time>
      </trkpt>
      <trkpt lat="44.60513" lon="2.49657">
        <ele>419.399</ele>
        <time>2015-08-05T15:04:47Z</time>
      </trkpt>
      <trkpt lat="44.60481" lon="2.4975">
        <ele>429.45</ele>
        <time>2015-08-05T15:05:07Z</time>
      </trkpt>
      <trkpt lat="44.60486" lon="2.49925">
        <ele>432.186</ele>
        <time>2015-08-05T15:05:27Z</time>
      </trkpt>
      <trkpt lat="44.60509" lon="2.49974">
        <ele>431.798</ele>
        <time>2015-08-05T15:05:47Z</time>
      </trkpt>
      <trkpt lat="44.60615" lon="2.5005">
        <ele>420.634</ele>
        <time>2015-08-05T15:06:07Z</time>
      </trkpt>
      <trkpt lat="44.60637" lon="2.50094">
        <ele>414.655</ele>
        <time>2020-03-06T22:32:37Z</time>
      </trkpt>
      <trkpt lat="44.60631" lon="2.5022">
        <ele>411.71</ele>
        <time>2020-03-06T22:32:57Z</time>
      </trkpt>
      <trkpt lat="44.60685" lon="2.50253">
        <ele>409.708</ele>
        <time>2015-08-05T15:07:07Z</time>
      </trkpt>
      <trkpt lat="44.60685" lon="2.5035">
        <ele>410.379</ele>
        <time>2015-08-05T15:07:27Z</time>
      </trkpt>
      <trkpt lat="44.60735" lon="2.50358">
        <ele>415.124</ele>
        <time>2015-08-05T15:07:47Z</time>
      </trkpt>
      <trkpt lat="44.60814" lon="2.5043">
        <ele>413.374</ele>
        <time>2015-08-05T15:08:07Z</time>
      </trkpt>
      <trkpt lat="44.60829" lon="2.50456">
        <ele>412.686</ele>
        <time>2015-08-05T15:08:27Z</time>
      </trkpt>
      <trkpt lat="44.60878" lon="2.50673">
        <ele>404.128</ele>
        <time>2015-08-05T15:08:47Z</time>
      </trkpt>
      <trkpt lat="44.60867" lon="2.50697">
        <ele>403.119</ele>
        <time>2015-08-05T15:09:07Z</time>
      </trkpt>
      <trkpt lat="44.60865" lon="2.50739">
        <ele>401.675</ele>
        <time>2015-08-05T15:09:27Z</time>
      </trkpt>
      <trkpt lat="44.6088" lon="2.50812">
        <ele>395.127</ele>
        <time>2015-08-05T15:09:47Z</time>
      </trkpt>
      <trkpt lat="44.6091" lon="2.50896">
        <ele>385.395</ele>
        <time>2015-08-05T15:10:07Z</time>
      </trkpt>
      <trkpt lat="44.6091" lon="2.50918">
        <ele>383.449</ele>
        <time>2015-08-05T15:10:27Z</time>
      </trkpt>
      <trkpt lat="44.60945" lon="2.50887">
        <ele>379.823</ele>
        <time>2015-08-05T15:10:47Z</time>
      </trkpt>
      <trkpt lat="44.60965" lon="2.50852">
        <ele>373.308</ele>
        <time>2015-08-05T15:11:07Z</time>
      </trkpt>
      <trkpt lat="44.60983" lon="2.50832">
        <ele>367.985</ele>
        <time>2015-08-05T15:11:27Z</time>
      </trkpt>
      <trkpt lat="44.60999" lon="2.50831">
        <ele>364.33</ele>
        <time>2015-08-05T15:11:47Z</time>
      </trkpt>
      <trkpt lat="44.61038" lon="2.50845">
        <ele>364.65</ele>
        <time>2015-08-05T15:12:07Z</time>
      </trkpt>
      <trkpt lat="44.61087" lon="2.50904">
        <ele>373.582</ele>
        <time>2015-08-05T15:12:27Z</time>
      </trkpt>
      <trkpt lat="44.61144" lon="2.50955">
        <ele>380.764</ele>
        <time>2015-08-05T15:12:47Z</time>
      </trkpt>
      <trkpt lat="44.61169" lon="2.50998">
        <ele>384.515</ele>
        <time>2015-08-05T15:13:07Z</time>
      </trkpt>
      <trkpt lat="44.61193" lon="2.51014">
        <ele>388.211</ele>
        <time>2015-08-05T15:13:27Z</time>
      </trkpt>
      <trkpt lat="44.6122" lon="2.51054">
        <ele>389.893</ele>
        <time>2015-08-05T15:13:47Z</time>
      </trkpt>
      <trkpt lat="44.61253" lon="2.51062">
        <ele>394.459</ele>
        <time>2015-08-05T15:14:07Z</time>
      </trkpt>
      <trkpt lat="44.61261" lon="2.51042">
        <ele>395.503</ele>
        <time>2015-08-05T15:14:27Z</time>
      </trkpt>
      <trkpt lat="44.61277" lon="2.51062">
        <ele>398.123</ele>
        <time>2015-08-05T15:14:47Z</time>
      </trkpt>
    </trkseg>
  </trk>
</gpx>